createdAt,value
2018-06-30T00:01:01.933Z,17.20
2018-06-30T00:03:36.717Z,17.20
2018-06-30T00:06:17.760Z,17.00
2018-06-30T00:08:59.720Z,17.00
2018-06-30T00:11:32.161Z,16.90
2018-06-30T00:14:13.382Z,16.80
2018-06-30T00:16:41.822Z,16.80
2018-06-30T00:19:10.272Z,16.70
2018-06-30T00:21:38.477Z,16.70
2018-06-30T00:24:18.913Z,16.60
2018-06-30T00:27:04.780Z,16.70
2018-06-30T00:29:34.516Z,16.70
2018-06-30T00:32:03.702Z,16.70
2018-06-30T00:37:02.613Z,16.70
2018-06-30T00:39:43.638Z,16.70
2018-06-30T00:42:24.265Z,16.70
2018-06-30T00:44:52.672Z,16.70
2018-06-30T00:47:33.566Z,16.80
2018-06-30T00:50:14.200Z,16.80
2018-06-30T00:52:54.878Z,16.70
2018-06-30T00:55:35.557Z,16.50
2018-06-30T00:58:16.133Z,16.60
2018-06-30T01:00:56.895Z,16.50
2018-06-30T01:03:37.470Z,16.60
2018-06-30T01:06:18.210Z,16.60
2018-06-30T01:08:58.558Z,16.50
2018-06-30T01:11:39.161Z,16.50
2018-06-30T01:14:07.423Z,16.30
2018-06-30T01:16:48.508Z,16.30
2018-06-30T01:19:16.707Z,16.20
2018-06-30T01:21:57.760Z,16.20
2018-06-30T01:24:25.975Z,16.20
2018-06-30T01:27:06.028Z,16.20
2018-06-30T01:29:46.800Z,16.20
2018-06-30T01:32:27.180Z,16.10
2018-06-30T01:35:08.276Z,16.10
2018-06-30T01:37:40.593Z,15.80
2018-06-30T01:40:08.860Z,15.70
2018-06-30T01:42:37.453Z,15.70
2018-06-30T01:45:07.423Z,15.70
2018-06-30T01:47:48.454Z,15.80
2018-06-30T01:50:16.621Z,15.90
2018-06-30T01:52:44.834Z,15.90
2018-06-30T01:55:13.253Z,15.90
2018-06-30T01:57:41.415Z,15.90
2018-06-30T02:00:09.581Z,15.90
2018-06-30T02:02:37.769Z,15.80
2018-06-30T02:05:05.956Z,15.80
2018-06-30T02:07:46.721Z,15.80
2018-06-30T02:10:15.021Z,15.80
2018-06-30T02:12:43.211Z,15.90
2018-06-30T02:15:23.837Z,15.90
2018-06-30T02:18:04.420Z,16.00
2018-06-30T02:20:32.627Z,16.10
2018-06-30T02:23:12.857Z,16.20
2018-06-30T02:25:53.436Z,16.20
2018-06-30T02:28:34.131Z,16.10
2018-06-30T02:31:14.795Z,16.10
2018-06-30T02:33:55.305Z,16.20
2018-06-30T02:36:23.483Z,16.00
2018-06-30T02:38:51.940Z,16.00
2018-06-30T02:41:32.562Z,15.80
2018-06-30T02:44:02.788Z,15.60
2018-06-30T02:46:42.992Z,15.50
2018-06-30T02:49:11.213Z,15.60
2018-06-30T02:51:51.614Z,15.60
2018-06-30T02:54:32.308Z,15.60
2018-06-30T02:57:12.812Z,15.70
2018-06-30T02:59:53.447Z,15.60
2018-06-30T03:02:21.744Z,15.60
2018-06-30T03:04:49.937Z,15.50
2018-06-30T03:07:18.121Z,15.40
2018-06-30T03:09:58.820Z,15.50
2018-06-30T03:12:26.985Z,15.50
2018-06-30T03:15:07.197Z,15.40
2018-06-30T03:17:36.780Z,15.40
2018-06-30T03:20:06.874Z,15.30
2018-06-30T03:22:36.526Z,15.40
2018-06-30T03:25:05.478Z,15.50
2018-06-30T03:27:33.777Z,15.40
2018-06-30T03:30:01.967Z,15.30
2018-06-30T03:32:30.993Z,15.30
2018-06-30T03:34:59.197Z,15.40
2018-06-30T03:37:39.694Z,15.40
2018-06-30T03:40:08.038Z,15.50
2018-06-30T03:42:48.201Z,15.50
2018-06-30T03:45:28.867Z,15.60
2018-06-30T03:47:57.141Z,15.70
2018-06-30T03:50:25.397Z,15.60
2018-06-30T03:52:53.628Z,15.60
2018-06-30T03:55:21.854Z,15.60
2018-06-30T03:57:50.490Z,15.60
2018-06-30T04:00:18.676Z,15.70
2018-06-30T04:02:59.298Z,15.60
2018-06-30T04:05:39.895Z,15.50
2018-06-30T04:08:16.011Z,15.30
2018-06-30T04:10:44.661Z,15.30
2018-06-30T04:13:25.067Z,15.30
2018-06-30T04:16:05.671Z,15.30
2018-06-30T04:18:46.405Z,15.40
2018-06-30T04:21:26.869Z,15.60
2018-06-30T04:23:59.066Z,15.50
2018-06-30T04:26:40.162Z,15.60
2018-06-30T04:29:08.387Z,15.60
2018-06-30T04:31:36.667Z,15.60
2018-06-30T04:34:17.510Z,15.60
2018-06-30T04:36:58.043Z,15.50
2018-06-30T04:39:26.766Z,15.60
2018-06-30T04:42:07.618Z,15.60
2018-06-30T04:44:48.425Z,15.70
2018-06-30T04:47:29.653Z,15.80
2018-06-30T04:50:09.966Z,15.80
2018-06-30T04:52:38.457Z,15.80
2018-06-30T04:55:19.273Z,15.90
2018-06-30T04:57:53.305Z,15.90
2018-06-30T05:00:34.031Z,15.90
2018-06-30T05:03:15.017Z,15.90
2018-06-30T05:05:55.704Z,16.00
2018-06-30T05:08:29.490Z,16.00
2018-06-30T05:10:57.798Z,16.10
2018-06-30T05:13:38.071Z,16.40
2018-06-30T05:16:07.601Z,17.20
2018-06-30T05:18:48.330Z,17.50
2018-06-30T05:21:28.831Z,17.50
2018-06-30T05:24:09.392Z,17.30
2018-06-30T05:26:37.607Z,17.10
2018-06-30T05:29:18.116Z,16.90
2018-06-30T05:31:58.549Z,16.80
2018-06-30T05:34:39.241Z,16.70
2018-06-30T05:37:07.489Z,16.70
2018-06-30T05:39:35.706Z,16.60
2018-06-30T05:42:16.228Z,16.60
2018-06-30T05:44:44.993Z,16.40
2018-06-30T05:47:13.246Z,16.40
2018-06-30T05:49:54.304Z,16.40
2018-06-30T05:52:34.980Z,16.40
2018-06-30T05:55:15.732Z,16.50
2018-06-30T05:57:45.353Z,16.60
2018-06-30T06:00:14.798Z,16.60
2018-06-30T06:02:55.002Z,16.70
2018-06-30T06:05:35.540Z,16.70
2018-06-30T06:08:03.929Z,16.80
2018-06-30T06:10:32.121Z,16.70
2018-06-30T06:13:00.338Z,16.70
2018-06-30T06:15:40.844Z,16.70
2018-06-30T06:18:09.009Z,16.80
2018-06-30T06:20:49.403Z,16.80
2018-06-30T06:23:17.611Z,16.80
2018-06-30T06:25:45.819Z,16.90
2018-06-30T06:28:26.727Z,17.00
2018-06-30T06:31:07.451Z,17.10
2018-06-30T06:33:48.168Z,17.10
2018-06-30T06:36:30.578Z,17.20
2018-06-30T06:39:11.725Z,17.20
2018-06-30T06:41:52.190Z,17.30
2018-06-30T06:44:20.452Z,17.30
2018-06-30T06:46:48.674Z,17.30
2018-06-30T06:49:29.579Z,17.40
2018-06-30T06:52:10.238Z,17.40
2018-06-30T06:54:38.479Z,17.50
2018-06-30T06:57:06.673Z,17.60
2018-06-30T06:59:35.403Z,17.60
2018-06-30T07:02:05.166Z,17.60
2018-06-30T07:04:33.529Z,17.60
2018-06-30T07:07:14.625Z,17.80
2018-06-30T07:09:55.428Z,17.80
2018-06-30T07:12:35.874Z,17.90
2018-06-30T07:15:16.595Z,18.00
2018-06-30T07:17:44.872Z,18.10
2018-06-30T07:20:13.099Z,18.10
2018-06-30T07:22:46.329Z,18.20
2018-06-30T07:25:26.707Z,18.20
2018-06-30T07:27:54.865Z,18.20
2018-06-30T07:30:35.117Z,18.30
2018-06-30T07:33:16.442Z,18.30
2018-06-30T07:35:44.658Z,18.50
2018-06-30T07:38:12.889Z,18.60
2018-06-30T07:40:43.999Z,18.70
2018-06-30T07:43:20.817Z,18.70
2018-06-30T07:45:48.995Z,18.70
2018-06-30T07:48:29.776Z,18.70
2018-06-30T07:50:59.298Z,18.70
2018-06-30T07:53:27.504Z,18.70
2018-06-30T07:56:08.179Z,18.80
2018-06-30T07:58:37.108Z,18.90
2018-06-30T08:01:06.828Z,18.90
2018-06-30T08:03:47.012Z,19.00
2018-06-30T08:06:15.205Z,19.00
2018-06-30T08:08:55.492Z,19.00
2018-06-30T08:11:26.968Z,19.10
2018-06-30T08:13:55.339Z,19.10
2018-06-30T08:16:35.709Z,19.10
2018-06-30T08:21:33.392Z,19.20
2018-06-30T08:24:14.160Z,19.30
2018-06-30T08:26:46.412Z,19.50
2018-06-30T08:29:26.992Z,19.60
2018-06-30T08:31:56.041Z,19.60
2018-06-30T08:34:24.785Z,19.50
2018-06-30T08:36:53.025Z,19.60
2018-06-30T08:39:33.737Z,19.80
2018-06-30T08:42:14.540Z,19.80
2018-06-30T08:44:55.273Z,19.80
2018-06-30T08:47:35.965Z,19.70
2018-06-30T08:50:06.523Z,19.70
2018-06-30T08:52:34.800Z,19.90
2018-06-30T08:55:03.939Z,20.10
2018-06-30T08:57:32.130Z,20.10
2018-06-30T09:00:12.917Z,20.20
2018-06-30T09:02:53.413Z,20.30
2018-06-30T09:05:34.059Z,20.50
2018-06-30T09:08:14.667Z,20.80
2018-06-30T09:10:42.923Z,20.80
2018-06-30T09:13:11.849Z,20.80
2018-06-30T09:15:44.114Z,20.70
2018-06-30T09:18:24.677Z,20.70
2018-06-30T09:21:05.253Z,20.60
2018-06-30T09:26:01.483Z,20.60
2018-06-30T09:28:29.981Z,20.90
2018-06-30T09:31:04.697Z,20.90
2018-06-30T09:33:44.881Z,21.00
2018-06-30T09:36:25.527Z,21.30
2018-06-30T09:38:53.720Z,21.30
2018-06-30T09:43:51.583Z,21.50
2018-06-30T09:46:32.294Z,21.40
2018-06-30T09:49:00.990Z,21.40
2018-06-30T09:51:29.685Z,21.30
2018-06-30T09:54:10.309Z,21.10
2018-06-30T09:56:44.938Z,21.10
2018-06-30T09:59:13.245Z,21.20
2018-06-30T10:01:54.371Z,21.20
2018-06-30T10:04:22.637Z,21.10
2018-06-30T10:07:02.861Z,21.30
2018-06-30T10:09:43.610Z,21.70
2018-06-30T10:12:24.243Z,22.00
2018-06-30T10:15:04.757Z,22.20
2018-06-30T10:17:33.026Z,22.40
2018-06-30T10:20:13.545Z,22.60
2018-06-30T10:22:54.135Z,22.60
2018-06-30T10:25:34.780Z,23.00
2018-06-30T10:28:15.197Z,22.70
2018-06-30T10:30:55.877Z,22.80
2018-06-30T10:33:36.525Z,22.50
2018-06-30T10:36:17.046Z,22.50
2018-06-30T10:38:57.713Z,22.60
2018-06-30T10:41:25.932Z,22.40
2018-06-30T10:44:07.024Z,22.60
2018-06-30T10:46:35.274Z,23.40
2018-06-30T10:49:16.432Z,24.80
2018-06-30T10:51:44.626Z,24.80
2018-06-30T10:54:18.989Z,24.50
2018-06-30T10:56:59.670Z,25.90
2018-06-30T10:59:28.006Z,26.60
2018-06-30T11:02:08.993Z,29.00
2018-06-30T11:04:49.521Z,30.40
2018-06-30T11:07:30.056Z,28.70
2018-06-30T11:09:59.348Z,29.30
2018-06-30T11:12:27.577Z,30.10
2018-06-30T11:15:07.973Z,32.00
2018-06-30T11:17:36.472Z,33.30
2018-06-30T11:20:04.948Z,33.20
2018-06-30T11:22:45.120Z,33.10
2018-06-30T11:25:13.338Z,33.30
2018-06-30T11:27:54.394Z,34.70
2018-06-30T11:30:22.588Z,33.70
2018-06-30T11:33:03.735Z,34.00
2018-06-30T11:38:13.119Z,32.00
2018-06-30T11:40:41.405Z,30.50
2018-06-30T11:43:21.521Z,28.50
2018-06-30T11:45:51.852Z,28.10
2018-06-30T11:48:31.975Z,27.30
2018-06-30T11:51:12.645Z,27.10
2018-06-30T11:53:53.231Z,26.30
2018-06-30T11:56:33.900Z,27.10
2018-06-30T11:59:02.116Z,29.10
2018-06-30T12:01:42.554Z,31.30
2018-06-30T12:04:22.838Z,32.30
2018-06-30T12:06:51.063Z,31.30
2018-06-30T12:09:19.341Z,29.60
2018-06-30T12:11:59.995Z,28.60
2018-06-30T12:14:40.721Z,27.40
2018-06-30T12:17:09.081Z,26.30
2018-06-30T12:19:49.257Z,25.70
2018-06-30T12:22:29.925Z,25.20
2018-06-30T12:25:10.391Z,24.90
2018-06-30T12:27:50.982Z,24.20
2018-06-30T12:30:31.459Z,24.30
2018-06-30T12:33:12.047Z,24.40
2018-06-30T12:35:52.508Z,24.50
2018-06-30T12:38:20.871Z,24.60
2018-06-30T12:41:01.901Z,25.10
2018-06-30T12:43:42.510Z,25.40
2018-06-30T12:46:23.312Z,25.90
2018-06-30T12:49:03.839Z,26.20
2018-06-30T12:51:44.608Z,26.70
2018-06-30T12:54:25.207Z,26.10
2018-06-30T12:56:53.365Z,25.80
2018-06-30T12:59:24.703Z,26.10
2018-06-30T13:02:05.442Z,26.10
2018-06-30T13:04:46.167Z,25.80
2018-06-30T13:07:14.427Z,25.50
2018-06-30T13:09:55.365Z,25.20
2018-06-30T13:12:36.107Z,24.80
2018-06-30T13:15:16.855Z,24.50
2018-06-30T13:17:45.134Z,24.50
2018-06-30T13:20:13.280Z,24.40
2018-06-30T13:22:41.489Z,24.60
2018-06-30T13:25:09.724Z,24.90
2018-06-30T13:27:50.324Z,25.20
2018-06-30T13:32:58.610Z,25.30
2018-06-30T13:35:39.487Z,25.40
2018-06-30T13:38:20.164Z,25.00
2018-06-30T13:41:01.017Z,25.00
2018-06-30T13:43:30.384Z,25.20
2018-06-30T13:45:58.581Z,25.60
2018-06-30T13:48:39.265Z,25.50
2018-06-30T13:51:07.709Z,25.00
2018-06-30T13:53:35.908Z,24.30
2018-06-30T13:56:16.348Z,23.90
2018-06-30T13:58:57.174Z,23.70
2018-06-30T14:01:26.178Z,23.70
2018-06-30T14:04:06.626Z,23.90
2018-06-30T14:06:34.844Z,24.00
2018-06-30T14:09:15.493Z,24.10
2018-06-30T14:11:56.014Z,24.20
2018-06-30T14:14:24.233Z,24.10
2018-06-30T14:17:04.467Z,24.00
2018-06-30T14:19:32.734Z,24.00
2018-06-30T14:22:13.760Z,24.00
2018-06-30T14:24:54.288Z,24.20
2018-06-30T14:27:22.504Z,24.00
2018-06-30T14:29:50.748Z,24.10
2018-06-30T14:32:31.503Z,24.30
2018-06-30T14:35:11.973Z,24.20
2018-06-30T14:37:52.610Z,24.60
2018-06-30T14:40:33.218Z,24.40
2018-06-30T14:43:13.798Z,24.50
2018-06-30T14:45:42.042Z,24.30
2018-06-30T14:48:22.187Z,24.30
2018-06-30T14:51:02.736Z,24.40
2018-06-30T14:53:43.249Z,24.20
2018-06-30T14:56:23.925Z,24.40
2018-06-30T14:59:04.690Z,24.60
2018-06-30T15:01:45.314Z,24.50
2018-06-30T15:04:13.557Z,24.70
2018-06-30T15:06:53.900Z,24.50
2018-06-30T15:09:34.349Z,24.20
2018-06-30T15:12:14.986Z,24.10
2018-06-30T15:14:55.561Z,23.90
2018-06-30T15:17:36.096Z,23.70
2018-06-30T15:20:04.491Z,23.50
2018-06-30T15:22:45.442Z,23.50
2018-06-30T15:25:25.957Z,23.60
2018-06-30T15:27:54.175Z,24.00
2018-06-30T15:30:35.186Z,24.00
2018-06-30T15:33:15.670Z,23.90
2018-06-30T15:35:56.330Z,24.10
2018-06-30T15:40:58.076Z,24.60
2018-06-30T15:43:39.464Z,24.60
2018-06-30T15:46:19.971Z,25.00
2018-06-30T15:48:48.262Z,25.20
2018-06-30T15:51:28.430Z,25.30
2018-06-30T15:54:09.303Z,25.20
2018-06-30T15:59:11.708Z,24.80
2018-06-30T16:01:52.329Z,24.60
2018-06-30T16:04:32.716Z,24.40
2018-06-30T16:09:35.240Z,24.00
2018-06-30T16:12:10.313Z,23.90
2018-06-30T16:14:51.319Z,23.90
2018-06-30T16:17:31.991Z,24.20
2018-06-30T16:20:12.673Z,24.40
2018-06-30T16:22:53.401Z,24.50
2018-06-30T16:25:35.183Z,24.60
2018-06-30T16:28:03.423Z,24.30
2018-06-30T16:30:43.602Z,24.00
2018-06-30T16:33:24.230Z,23.60
2018-06-30T16:35:53.040Z,23.50
2018-06-30T16:38:21.253Z,23.70
2018-06-30T16:41:01.519Z,24.10
2018-06-30T16:43:42.185Z,24.10
2018-06-30T16:46:10.349Z,24.70
2018-06-30T16:48:51.528Z,26.30
2018-06-30T16:51:32.213Z,27.30
2018-06-30T16:54:00.806Z,26.70
2018-06-30T16:56:41.683Z,26.20
2018-06-30T17:01:56.837Z,25.20
2018-06-30T17:04:37.295Z,24.70
2018-06-30T17:07:17.799Z,24.40
2018-06-30T17:09:58.509Z,24.30
2018-06-30T17:12:39.037Z,24.20
2018-06-30T17:15:19.807Z,24.00
2018-06-30T17:18:00.358Z,24.20
2018-06-30T17:20:41.174Z,24.10
2018-06-30T17:23:09.422Z,24.40
2018-06-30T17:25:37.629Z,24.10
2018-06-30T17:28:18.121Z,24.10
2018-06-30T17:30:58.863Z,24.30
2018-06-30T17:33:39.585Z,24.40
2018-06-30T17:36:20.280Z,24.60
2018-06-30T17:39:00.621Z,24.70
2018-06-30T17:44:09.313Z,24.50
2018-06-30T17:46:50.439Z,24.80
2018-06-30T17:49:31.072Z,24.80
2018-06-30T17:52:11.874Z,24.90
2018-06-30T17:54:40.127Z,24.50
2018-06-30T17:57:21.086Z,24.40
2018-06-30T18:00:01.643Z,25.00
2018-06-30T18:02:29.981Z,26.10
2018-06-30T18:07:32.125Z,25.50
2018-06-30T18:10:00.900Z,24.80
2018-06-30T18:12:33.536Z,24.30
2018-06-30T18:15:13.717Z,23.60
2018-06-30T18:17:42.085Z,23.10
2018-06-30T18:20:20.295Z,22.60
2018-06-30T18:23:00.790Z,22.30
2018-06-30T18:25:29.090Z,22.10
2018-06-30T18:28:10.189Z,22.00
2018-06-30T18:30:38.548Z,22.00
2018-06-30T18:33:20.211Z,21.70
2018-06-30T18:35:48.492Z,21.70
2018-06-30T18:38:16.813Z,21.50
2018-06-30T18:40:57.464Z,21.40
2018-06-30T18:43:38.228Z,21.40
2018-06-30T18:46:18.773Z,21.30
2018-06-30T18:48:47.010Z,21.30
2018-06-30T18:51:28.136Z,21.10
2018-06-30T18:54:09.718Z,21.00
2018-06-30T18:56:41.008Z,20.90
2018-06-30T18:59:09.196Z,20.80
2018-06-30T19:01:50.003Z,20.70
2018-06-30T19:04:19.123Z,20.70
2018-06-30T19:07:00.264Z,20.60
2018-06-30T19:09:28.506Z,20.60
2018-06-30T19:11:56.750Z,20.50
2018-06-30T19:14:37.610Z,20.40
2018-06-30T19:17:18.262Z,20.30
2018-06-30T19:19:46.573Z,20.30
2018-06-30T19:22:27.787Z,20.30
2018-06-30T19:27:31.446Z,20.10
2018-06-30T19:30:03.086Z,20.00
2018-06-30T19:32:43.511Z,20.10
2018-06-30T19:35:17.785Z,20.10
2018-06-30T19:37:46.178Z,20.00
2018-06-30T19:40:15.129Z,19.90
2018-06-30T19:42:44.357Z,19.90
2018-06-30T19:45:12.594Z,20.00
2018-06-30T19:47:41.915Z,19.80
2018-06-30T19:50:10.964Z,19.80
2018-06-30T19:52:41.204Z,19.70
2018-06-30T19:55:09.524Z,19.50
2018-06-30T19:57:37.804Z,19.60
2018-06-30T20:00:06.250Z,19.60
2018-06-30T20:02:34.432Z,19.60
2018-06-30T20:05:10.026Z,19.50
2018-06-30T20:07:43.874Z,19.50
2018-06-30T20:10:12.429Z,19.40
2018-06-30T20:12:41.063Z,19.30
2018-06-30T20:15:21.363Z,19.30
2018-06-30T20:17:49.610Z,19.30
2018-06-30T20:20:29.824Z,19.20
2018-06-30T20:23:10.277Z,19.10
2018-06-30T20:25:50.969Z,19.10
2018-06-30T20:28:19.238Z,18.90
2018-06-30T20:30:50.544Z,18.90
2018-06-30T20:33:23.830Z,18.90
2018-06-30T20:35:53.650Z,18.80
2018-06-30T20:38:21.950Z,18.80
2018-06-30T20:41:02.886Z,18.80
2018-06-30T20:43:31.238Z,18.80
2018-06-30T20:45:59.480Z,18.90
2018-06-30T20:48:27.873Z,18.90
2018-06-30T20:50:56.163Z,18.90
2018-06-30T20:53:30.542Z,18.90
2018-06-30T20:55:58.923Z,18.80
2018-06-30T20:58:39.946Z,18.70
2018-06-30T21:03:48.286Z,18.70
2018-06-30T21:06:16.494Z,18.60
2018-06-30T21:08:44.721Z,18.50
2018-06-30T21:11:25.268Z,18.40
2018-06-30T21:14:00.408Z,18.60
2018-06-30T21:16:40.566Z,18.70
2018-06-30T21:19:21.230Z,18.60
2018-06-30T21:21:50.081Z,18.60
2018-06-30T21:24:18.966Z,18.50
2018-06-30T21:26:54.253Z,18.50
2018-06-30T21:29:22.463Z,18.50
2018-06-30T21:32:03.273Z,18.40
2018-06-30T21:34:43.804Z,18.30
2018-06-30T21:37:24.578Z,18.20
2018-06-30T21:40:05.102Z,18.20
2018-06-30T21:42:33.353Z,18.10
2018-06-30T21:45:01.762Z,17.90
2018-06-30T21:47:42.868Z,17.80
2018-06-30T21:50:23.527Z,17.70
2018-06-30T21:53:04.388Z,17.60
2018-06-30T21:55:45.106Z,17.60
2018-06-30T21:58:13.952Z,17.50
2018-06-30T22:03:29.350Z,17.40
2018-06-30T22:06:10.012Z,17.40
2018-06-30T22:08:50.776Z,17.50
2018-06-30T22:11:31.611Z,17.40
2018-06-30T22:14:12.289Z,17.20
2018-06-30T22:16:40.499Z,17.10
2018-06-30T22:21:36.848Z,17.00
2018-06-30T22:24:05.368Z,16.90
2018-06-30T22:26:33.577Z,16.80
2018-06-30T22:29:13.787Z,16.70
2018-06-30T22:31:42.010Z,16.70
2018-06-30T22:34:23.069Z,16.60
2018-06-30T22:37:03.549Z,16.50
2018-06-30T22:39:44.256Z,16.50
2018-06-30T22:42:24.885Z,16.50
2018-06-30T22:45:05.522Z,16.40
2018-06-30T22:47:46.814Z,16.30
2018-06-30T22:50:27.748Z,16.20
2018-06-30T22:53:08.288Z,16.20
2018-06-30T22:55:48.857Z,16.20
2018-06-30T22:58:29.387Z,16.30
2018-06-30T23:00:57.603Z,16.30
2018-06-30T23:03:37.781Z,16.40
2018-06-30T23:06:18.414Z,16.30
2018-06-30T23:08:59.024Z,16.40
2018-06-30T23:11:39.652Z,16.50
2018-06-30T23:14:20.290Z,16.40
2018-06-30T23:16:48.510Z,16.30
2018-06-30T23:19:28.710Z,16.30
2018-06-30T23:21:56.974Z,16.20
2018-06-30T23:24:25.214Z,16.20
2018-06-30T23:26:53.455Z,16.10
2018-06-30T23:29:21.669Z,16.10
2018-06-30T23:32:02.351Z,16.10
2018-06-30T23:34:42.829Z,16.00
2018-06-30T23:37:11.197Z,16.00
2018-06-30T23:39:51.346Z,15.90
2018-06-30T23:45:05.695Z,16.10
2018-06-30T23:47:33.908Z,16.00
2018-06-30T23:50:14.319Z,16.00
2018-06-30T23:52:54.924Z,16.00
2018-06-30T23:55:35.868Z,16.00
2018-06-30T23:58:16.633Z,16.00
